createdAt,value
2023-11-01T00:05:24.659Z,8.34
2023-11-01T00:12:07.154Z,8.26
2023-11-01T00:18:49.617Z,8.21
2023-11-01T00:25:32.129Z,8.16
2023-11-01T00:32:15.529Z,8.09
2023-11-01T00:38:57.841Z,7.97
2023-11-01T00:45:40.167Z,7.91
2023-11-01T00:52:22.439Z,7.84
2023-11-01T00:59:04.733Z,7.79
2023-11-01T01:05:47.074Z,7.74
2023-11-01T01:12:29.407Z,7.69
2023-11-01T01:19:11.718Z,7.64
2023-11-01T01:25:54.153Z,7.52
2023-11-01T01:32:36.548Z,7.41
2023-11-01T01:39:20.687Z,7.32
2023-11-01T01:46:15.533Z,7.25
2023-11-01T01:52:58.535Z,7.19
2023-11-01T01:59:41.049Z,7.17
2023-11-01T02:06:23.863Z,7.13
2023-11-01T02:13:15.924Z,7.13
2023-11-01T02:19:58.224Z,7.11
2023-11-01T02:26:41.816Z,7.08
2023-11-01T02:33:24.237Z,7.05
2023-11-01T02:40:07.298Z,7.02
2023-11-01T02:46:50.350Z,6.99
2023-11-01T02:53:32.559Z,6.93
2023-11-01T03:00:21.354Z,6.86
2023-11-01T03:07:03.718Z,6.84
2023-11-01T03:13:46.015Z,6.81
2023-11-01T03:20:28.350Z,6.71
2023-11-01T03:27:11.036Z,6.57
2023-11-01T03:33:53.276Z,6.46
2023-11-01T03:40:35.800Z,6.38
2023-11-01T03:47:18.329Z,6.30
2023-11-01T03:54:00.983Z,6.24
2023-11-01T04:00:44.002Z,6.21
2023-11-01T04:07:26.382Z,6.18
2023-11-01T04:14:08.923Z,6.12
2023-11-01T04:20:51.184Z,6.04
2023-11-01T04:27:41.129Z,5.98
2023-11-01T04:34:23.547Z,5.91
2023-11-01T04:41:10.822Z,5.82
2023-11-01T04:47:53.306Z,5.75
2023-11-01T04:54:36.296Z,5.67
2023-11-01T05:01:18.576Z,5.56
2023-11-01T05:08:01.508Z,5.49
2023-11-01T05:14:43.785Z,5.40
2023-11-01T05:21:26.007Z,5.34
2023-11-01T05:28:08.618Z,5.30
2023-11-01T05:34:50.983Z,5.26
2023-11-01T05:41:33.816Z,5.26
2023-11-01T05:48:16.260Z,5.27
2023-11-01T05:55:07.517Z,5.30
2023-11-01T06:01:56.464Z,5.37
2023-11-01T06:08:38.939Z,5.43
2023-11-01T06:15:21.318Z,5.51
2023-11-01T06:22:05.561Z,5.58
2023-11-01T06:28:48.029Z,5.66
2023-11-01T06:35:30.349Z,5.70
2023-11-01T06:42:12.655Z,5.75
2023-11-01T06:48:55.346Z,5.80
2023-11-01T06:55:40.239Z,5.84
2023-11-01T07:02:22.528Z,5.87
2023-11-01T07:09:06.517Z,5.89
2023-11-01T07:15:48.988Z,5.91
2023-11-01T07:22:31.393Z,5.94
2023-11-01T07:29:13.842Z,5.96
2023-11-01T07:35:56.735Z,6.02
2023-11-01T07:42:39.890Z,6.09
2023-11-01T07:49:22.115Z,6.12
2023-11-01T07:56:04.910Z,6.15
2023-11-01T08:02:47.517Z,6.16
2023-11-01T08:09:29.893Z,6.18
2023-11-01T08:16:12.393Z,6.21
2023-11-01T08:22:54.697Z,6.24
2023-11-01T08:29:38.128Z,6.30
2023-11-01T08:36:20.312Z,6.33
2023-11-01T08:43:02.578Z,6.37
2023-11-01T08:49:44.753Z,6.40
2023-11-01T08:56:27.255Z,6.42
2023-11-01T09:03:09.672Z,6.48
2023-11-01T09:09:55.266Z,6.52
2023-11-01T09:16:38.256Z,6.54
2023-11-01T09:23:20.809Z,6.59
2023-11-01T09:30:05.929Z,6.62
2023-11-01T09:36:48.156Z,6.65
2023-11-01T09:43:32.091Z,6.68
2023-11-01T09:50:14.977Z,6.73
2023-11-01T09:56:58.933Z,6.79
2023-11-01T10:03:41.376Z,6.81
2023-11-01T10:10:23.750Z,6.83
2023-11-01T10:17:06.150Z,6.83
2023-11-01T10:23:49.246Z,6.83
2023-11-01T10:30:31.968Z,6.84
2023-11-01T10:37:18.549Z,6.87
2023-11-01T10:44:00.936Z,6.95
2023-11-01T10:50:46.495Z,7.04
2023-11-01T10:57:29.240Z,7.13
2023-11-01T11:05:06.952Z,7.23
2023-11-01T11:12:27.905Z,7.22
2023-11-01T11:19:10.124Z,7.21
2023-11-01T11:25:53.262Z,7.26
2023-11-01T11:32:36.583Z,7.52
2023-11-01T11:39:18.912Z,7.70
2023-11-01T11:46:36.668Z,7.69
2023-11-01T11:53:20.210Z,7.76
2023-11-01T12:00:09.108Z,7.87
2023-11-01T12:06:51.820Z,7.90
2023-11-01T12:13:50.844Z,8.05
2023-11-01T12:20:33.783Z,8.36
2023-11-01T12:27:23.192Z,8.70
2023-11-01T12:34:12.385Z,8.98
2023-11-01T12:40:58.432Z,9.25
2023-11-01T12:47:51.888Z,9.54
2023-11-01T12:54:34.342Z,9.79
2023-11-01T13:01:18.972Z,9.93
2023-11-01T13:08:03.363Z,9.99
2023-11-01T13:14:45.618Z,10.13
2023-11-01T13:21:27.842Z,10.21
2023-11-01T13:28:10.292Z,10.30
2023-11-01T13:34:52.740Z,10.47
2023-11-01T13:41:35.032Z,10.59
2023-11-01T13:48:17.286Z,10.69
2023-11-01T13:54:59.582Z,10.81
2023-11-01T14:01:41.785Z,10.90
2023-11-01T14:08:24.073Z,10.92
2023-11-01T14:15:07.083Z,10.77
2023-11-01T14:21:49.405Z,10.57
2023-11-01T14:28:34.349Z,10.33
2023-11-01T14:35:16.599Z,10.05
2023-11-01T14:41:58.946Z,9.77
2023-11-01T14:48:41.354Z,9.46
2023-11-01T14:55:24.020Z,9.12
2023-11-01T15:02:06.804Z,8.82
2023-11-01T15:08:49.068Z,8.53
2023-11-01T15:15:31.364Z,8.28
2023-11-01T15:22:13.639Z,7.97
2023-11-01T15:28:56.590Z,7.70
2023-11-01T15:35:38.906Z,7.50
2023-11-01T15:42:21.282Z,7.27
2023-11-01T15:49:03.661Z,7.06
2023-11-01T15:55:46.201Z,6.77
2023-11-01T16:02:30.966Z,6.57
2023-11-01T16:09:17.187Z,6.39
2023-11-01T16:15:59.958Z,6.25
2023-11-01T16:22:42.218Z,6.12
2023-11-01T16:29:24.641Z,5.98
2023-11-01T16:36:08.493Z,5.89
2023-11-01T16:42:50.934Z,5.80
2023-11-01T16:49:33.202Z,5.77
2023-11-01T16:56:15.526Z,5.74
2023-11-01T17:02:57.911Z,5.67
2023-11-01T17:09:40.397Z,5.55
2023-11-01T17:16:22.761Z,5.45
2023-11-01T17:23:08.735Z,5.33
2023-11-01T17:29:53.712Z,5.19
2023-11-01T17:36:36.868Z,5.12
2023-11-01T17:43:53.100Z,5.05
2023-11-01T17:50:35.475Z,4.99
2023-11-01T17:57:19.223Z,4.97
2023-11-01T18:04:01.935Z,4.90
2023-11-01T18:10:55.091Z,4.88
2023-11-01T18:17:37.416Z,4.87
2023-11-01T18:24:43.577Z,4.87
2023-11-01T18:31:44.027Z,4.81
2023-11-01T18:38:54.471Z,4.76
2023-11-01T18:45:38.399Z,4.68
2023-11-01T18:52:23.847Z,4.61
2023-11-01T18:59:12.628Z,4.55
2023-11-01T19:05:55.997Z,4.53
2023-11-01T19:12:38.361Z,4.47
2023-11-01T19:19:20.571Z,4.42
2023-11-01T19:26:05.518Z,4.37
2023-11-01T19:32:48.023Z,4.35
2023-11-01T19:39:30.315Z,4.37
2023-11-01T19:46:12.664Z,4.37
2023-11-01T19:52:56.806Z,4.33
2023-11-01T19:59:39.872Z,4.26
2023-11-01T20:06:23.433Z,4.19
2023-11-01T20:13:05.652Z,4.14
2023-11-01T20:19:47.895Z,4.11
2023-11-01T20:26:31.508Z,4.11
2023-11-01T20:33:15.554Z,4.16
2023-11-01T20:39:58.235Z,4.21
2023-11-01T20:46:40.615Z,4.24
2023-11-01T20:53:22.945Z,4.27
2023-11-01T21:00:11.596Z,4.29
2023-11-01T21:06:53.877Z,4.29
2023-11-01T21:13:36.323Z,4.30
2023-11-01T21:20:18.705Z,4.33
2023-11-01T21:27:01.092Z,4.35
2023-11-01T21:33:46.612Z,4.37
2023-11-01T21:40:29.019Z,4.41
2023-11-01T21:47:14.217Z,4.44
2023-11-01T21:53:58.684Z,4.48
2023-11-01T22:00:46.552Z,4.58
2023-11-01T22:07:29.759Z,4.69
2023-11-01T22:14:33.199Z,4.80
2023-11-01T22:21:17.437Z,4.88
2023-11-01T22:28:04.347Z,4.96
2023-11-01T22:34:51.454Z,5.03
2023-11-01T22:41:33.872Z,5.08
2023-11-01T22:48:17.147Z,5.16
2023-11-01T22:55:00.023Z,5.23
2023-11-01T23:01:42.526Z,5.32
2023-11-01T23:08:24.959Z,5.41
2023-11-01T23:15:09.695Z,5.47
2023-11-01T23:21:52.286Z,5.56
2023-11-01T23:28:38.078Z,5.63
2023-11-01T23:35:21.131Z,5.70
2023-11-01T23:42:04.797Z,5.76
2023-11-01T23:48:50.416Z,5.80
2023-11-01T23:55:34.292Z,5.85
